createdAt,value
2019-05-09T00:00:44.377Z,22.46
2019-05-09T00:01:44.406Z,22.45
2019-05-09T00:02:44.398Z,22.42
2019-05-09T00:03:44.545Z,22.40
2019-05-09T00:04:44.333Z,22.54
2019-05-09T00:05:44.319Z,22.39
2019-05-09T00:06:44.308Z,22.43
2019-05-09T00:07:44.306Z,22.47
2019-05-09T00:08:44.430Z,22.45
2019-05-09T00:09:44.277Z,22.49
2019-05-09T00:10:44.928Z,22.47
2019-05-09T00:11:44.253Z,22.46
2019-05-09T00:12:44.259Z,22.40
2019-05-09T00:13:44.234Z,22.37
2019-05-09T00:14:44.224Z,22.45
2019-05-09T00:15:44.208Z,22.46
2019-05-09T00:16:44.203Z,22.49
2019-05-09T00:17:44.186Z,22.47
2019-05-09T00:18:55.441Z,22.43
2019-05-09T00:19:44.166Z,22.47
2019-05-09T00:20:44.156Z,22.42
2019-05-09T00:21:44.148Z,22.37
2019-05-09T00:22:44.139Z,22.40
2019-05-09T00:23:44.180Z,22.45
2019-05-09T00:24:44.834Z,22.43
2019-05-09T00:25:44.101Z,22.39
2019-05-09T00:26:44.404Z,22.45
2019-05-09T00:27:44.077Z,22.30
2019-05-09T00:28:44.215Z,22.31
2019-05-09T00:29:44.059Z,22.42
2019-05-09T00:30:44.087Z,22.37
2019-05-09T00:31:44.035Z,22.36
2019-05-09T00:32:44.029Z,22.49
2019-05-09T00:33:46.128Z,22.43
2019-05-09T00:34:44.229Z,22.45
2019-05-09T00:35:44.332Z,22.36
2019-05-09T00:36:44.023Z,22.36
2019-05-09T00:37:43.968Z,22.46
2019-05-09T00:38:43.959Z,22.39
2019-05-09T00:39:43.945Z,22.39
2019-05-09T00:40:55.287Z,22.42
2019-05-09T00:41:44.963Z,22.43
2019-05-09T00:42:44.171Z,22.42
2019-05-09T00:43:43.899Z,22.31
2019-05-09T00:44:43.893Z,22.42
2019-05-09T00:45:43.967Z,22.45
2019-05-09T00:46:43.864Z,22.45
2019-05-09T00:47:43.892Z,22.33
2019-05-09T00:48:43.964Z,22.40
2019-05-09T00:49:54.253Z,22.45
2019-05-09T00:50:43.848Z,22.45
2019-05-09T00:51:43.820Z,22.31
2019-05-09T00:52:43.799Z,22.35
2019-05-09T00:53:44.413Z,22.33
2019-05-09T00:54:43.889Z,22.43
2019-05-09T00:55:43.790Z,22.42
2019-05-09T00:56:43.755Z,22.27
2019-05-09T00:57:44.043Z,22.27
2019-05-09T00:58:44.164Z,22.40
2019-05-09T00:59:44.647Z,22.36
2019-05-09T01:00:44.042Z,22.33
2019-05-09T01:01:43.841Z,22.31
2019-05-09T01:02:43.695Z,22.37
2019-05-09T01:03:43.682Z,22.37
2019-05-09T01:04:43.824Z,22.33
2019-05-09T01:05:43.813Z,22.27
2019-05-09T01:06:43.646Z,22.33
2019-05-09T01:07:43.634Z,22.31
2019-05-09T01:08:44.258Z,22.35
2019-05-09T01:09:43.982Z,22.35
2019-05-09T01:10:43.768Z,22.37
2019-05-09T01:11:44.057Z,22.33
2019-05-09T01:12:43.628Z,22.27
2019-05-09T01:13:43.607Z,22.33
2019-05-09T01:14:43.557Z,22.31
2019-05-09T01:15:44.095Z,22.36
2019-05-09T01:16:44.146Z,22.36
2019-05-09T01:17:44.137Z,22.37
2019-05-09T01:18:43.814Z,22.33
2019-05-09T01:19:43.508Z,22.43
2019-05-09T01:20:55.019Z,22.30
2019-05-09T01:21:43.947Z,22.33
2019-05-09T01:22:43.665Z,22.33
2019-05-09T01:23:43.745Z,22.33
2019-05-09T01:24:44.280Z,22.31
2019-05-09T01:25:43.646Z,22.37
2019-05-09T01:26:43.653Z,22.30
2019-05-09T01:27:43.433Z,22.31
2019-05-09T01:28:44.205Z,22.36
2019-05-09T01:29:43.932Z,22.27
2019-05-09T01:30:43.957Z,22.30
2019-05-09T01:31:43.735Z,22.28
2019-05-09T01:32:43.444Z,22.40
2019-05-09T01:33:43.911Z,22.43
2019-05-09T01:34:43.742Z,22.40
2019-05-09T01:35:43.501Z,22.40
2019-05-09T01:36:43.423Z,22.40
2019-05-09T01:37:43.510Z,22.46
2019-05-09T01:38:43.459Z,22.31
2019-05-09T01:39:44.077Z,22.45
2019-05-09T01:40:43.874Z,22.35
2019-05-09T01:41:43.693Z,22.39
2019-05-09T01:42:43.339Z,22.36
2019-05-09T01:43:44.252Z,22.31
2019-05-09T01:44:44.039Z,22.37
2019-05-09T01:45:46.599Z,22.37
2019-05-09T01:46:43.648Z,22.33
2019-05-09T01:47:43.198Z,22.31
2019-05-09T01:48:43.260Z,22.35
2019-05-09T01:49:43.290Z,22.35
2019-05-09T01:50:43.280Z,22.31
2019-05-09T01:51:53.868Z,22.40
2019-05-09T01:52:44.015Z,22.43
2019-05-09T01:53:43.753Z,22.39
2019-05-09T01:54:43.632Z,22.35
2019-05-09T01:55:43.286Z,22.40
2019-05-09T01:56:43.196Z,22.35
2019-05-09T01:57:47.244Z,22.27
2019-05-09T01:58:43.260Z,22.31
2019-05-09T01:59:44.388Z,22.40
2019-05-09T02:00:43.643Z,22.42
2019-05-09T02:01:43.527Z,22.31
2019-05-09T02:02:43.393Z,22.31
2019-05-09T02:03:44.265Z,22.35
2019-05-09T02:04:43.939Z,22.42
2019-05-09T02:05:43.530Z,22.37
2019-05-09T02:06:44.038Z,22.37
2019-05-09T02:07:43.858Z,22.39
2019-05-09T02:08:43.804Z,22.37
2019-05-09T02:09:43.505Z,22.31
2019-05-09T02:10:44.202Z,22.37
2019-05-09T02:11:45.511Z,22.37
2019-05-09T02:12:43.147Z,22.35
2019-05-09T02:13:44.237Z,22.36
2019-05-09T02:14:43.717Z,22.35
2019-05-09T02:15:43.436Z,22.37
2019-05-09T02:16:43.289Z,22.28
2019-05-09T02:17:55.809Z,22.33
2019-05-09T02:18:44.135Z,22.40
2019-05-09T02:19:43.981Z,22.33
2019-05-09T02:20:43.908Z,22.31
2019-05-09T02:21:43.700Z,22.40
2019-05-09T02:22:55.099Z,22.35
2019-05-09T02:23:43.235Z,22.40
2019-05-09T02:24:44.088Z,22.31
2019-05-09T02:25:43.846Z,22.35
2019-05-09T02:26:43.936Z,22.39
2019-05-09T02:27:43.703Z,22.36
2019-05-09T02:28:43.406Z,22.35
2019-05-09T02:29:43.999Z,22.35
2019-05-09T02:30:45.050Z,22.36
2019-05-09T02:31:44.550Z,22.40
2019-05-09T02:32:45.047Z,22.33
2019-05-09T02:33:45.462Z,22.37
2019-05-09T02:34:44.314Z,22.39
2019-05-09T02:35:52.849Z,22.33
2019-05-09T02:36:43.670Z,22.37
2019-05-09T02:37:42.662Z,22.36
2019-05-09T02:38:42.649Z,22.37
2019-05-09T02:39:42.643Z,22.28
2019-05-09T02:40:42.624Z,22.40
2019-05-09T02:41:59.518Z,22.39
2019-05-09T02:42:43.647Z,22.35
2019-05-09T02:43:42.594Z,22.28
2019-05-09T02:44:42.592Z,22.35
2019-05-09T02:45:42.574Z,22.39
2019-05-09T02:46:42.578Z,22.42
2019-05-09T02:47:42.549Z,22.31
2019-05-09T02:48:42.578Z,22.31
2019-05-09T02:49:42.529Z,22.35
2019-05-09T02:50:42.518Z,22.37
2019-05-09T02:51:42.510Z,22.27
2019-05-09T02:52:42.499Z,22.42
2019-05-09T02:53:53.152Z,22.43
2019-05-09T02:54:42.477Z,22.33
2019-05-09T02:55:42.466Z,22.37
2019-05-09T02:56:42.451Z,22.40
2019-05-09T02:57:42.445Z,22.33
2019-05-09T02:58:42.433Z,22.42
2019-05-09T02:59:42.437Z,22.42
2019-05-09T03:00:42.413Z,22.36
2019-05-09T03:01:42.404Z,22.33
2019-05-09T03:02:42.388Z,22.33
2019-05-09T03:03:42.388Z,22.40
2019-05-09T03:04:42.368Z,22.35
2019-05-09T03:05:42.366Z,22.37
2019-05-09T03:06:42.350Z,22.45
2019-05-09T03:07:42.336Z,22.35
2019-05-09T03:08:42.325Z,22.36
2019-05-09T03:09:42.316Z,22.30
2019-05-09T03:10:42.334Z,22.39
2019-05-09T03:11:42.288Z,22.30
2019-05-09T03:12:42.317Z,22.42
2019-05-09T03:13:42.269Z,22.42
2019-05-09T03:14:42.262Z,22.46
2019-05-09T03:15:42.246Z,22.39
2019-05-09T03:16:42.279Z,22.46
2019-05-09T03:17:42.228Z,22.45
2019-05-09T03:18:42.213Z,22.37
2019-05-09T03:19:42.206Z,22.40
2019-05-09T03:20:42.187Z,22.47
2019-05-09T03:21:42.188Z,22.49
2019-05-09T03:22:42.206Z,22.46
2019-05-09T03:23:42.158Z,22.46
2019-05-09T03:24:52.439Z,22.46
2019-05-09T03:25:42.140Z,22.49
2019-05-09T03:26:42.127Z,22.31
2019-05-09T03:27:42.112Z,22.31
2019-05-09T03:28:42.143Z,22.45
2019-05-09T03:29:42.092Z,22.37
2019-05-09T03:30:42.085Z,22.30
2019-05-09T03:31:42.071Z,22.36
2019-05-09T03:32:42.070Z,22.27
2019-05-09T03:33:42.048Z,22.37
2019-05-09T03:34:42.043Z,22.36
2019-05-09T03:35:42.031Z,22.43
2019-05-09T03:36:42.013Z,22.30
2019-05-09T03:37:42.013Z,22.30
2019-05-09T03:38:41.997Z,22.37
2019-05-09T03:39:42.021Z,22.33
2019-05-09T03:40:41.967Z,22.37
2019-05-09T03:41:41.962Z,22.39
2019-05-09T03:42:43.737Z,22.31
2019-05-09T03:43:41.937Z,22.39
2019-05-09T03:44:41.923Z,22.43
2019-05-09T03:45:41.950Z,22.31
2019-05-09T03:46:41.901Z,22.30
2019-05-09T03:47:41.900Z,22.27
2019-05-09T03:48:41.893Z,22.42
2019-05-09T03:49:41.873Z,22.36
2019-05-09T03:50:41.862Z,22.39
2019-05-09T03:51:41.864Z,22.40
2019-05-09T03:52:41.839Z,22.33
2019-05-09T03:53:41.826Z,22.42
2019-05-09T03:54:41.812Z,22.31
2019-05-09T03:55:52.712Z,22.36
2019-05-09T03:56:41.840Z,22.36
2019-05-09T03:57:41.784Z,22.33
2019-05-09T03:58:41.772Z,22.39
2019-05-09T03:59:41.758Z,22.33
2019-05-09T04:00:41.747Z,22.27
2019-05-09T04:01:41.744Z,22.27
2019-05-09T04:02:41.766Z,22.31
2019-05-09T04:03:41.720Z,22.35
2019-05-09T04:04:41.712Z,22.37
2019-05-09T04:05:55.376Z,22.31
2019-05-09T04:06:42.689Z,22.31
2019-05-09T04:07:41.680Z,22.30
2019-05-09T04:08:41.703Z,22.36
2019-05-09T04:09:41.649Z,22.37
2019-05-09T04:10:41.643Z,22.36
2019-05-09T04:11:41.630Z,22.31
2019-05-09T04:12:52.831Z,22.28
2019-05-09T04:13:42.625Z,22.27
2019-05-09T04:14:41.598Z,22.28
2019-05-09T04:15:41.584Z,22.27
2019-05-09T04:16:41.575Z,22.28
2019-05-09T04:17:41.567Z,22.31
2019-05-09T04:18:41.568Z,22.28
2019-05-09T04:19:41.580Z,22.36
2019-05-09T04:20:41.536Z,22.33
2019-05-09T04:21:41.524Z,22.31
2019-05-09T04:22:41.514Z,22.31
2019-05-09T04:23:41.502Z,22.30
2019-05-09T04:24:41.491Z,22.18
2019-05-09T04:25:41.490Z,22.33
2019-05-09T04:26:53.693Z,22.36
2019-05-09T04:27:41.454Z,22.18
2019-05-09T04:28:41.449Z,22.20
2019-05-09T04:29:41.433Z,22.30
2019-05-09T04:30:41.463Z,22.21
2019-05-09T04:31:41.418Z,22.20
2019-05-09T04:32:41.402Z,22.20
2019-05-09T04:33:41.388Z,22.20
2019-05-09T04:34:41.386Z,22.21
2019-05-09T04:35:41.372Z,22.21
2019-05-09T04:36:41.402Z,22.20
2019-05-09T04:37:41.349Z,22.21
2019-05-09T04:38:41.941Z,22.25
2019-05-09T04:39:41.330Z,22.31
2019-05-09T04:40:44.864Z,22.28
2019-05-09T04:41:41.304Z,22.22
2019-05-09T04:42:44.434Z,22.24
2019-05-09T04:43:41.279Z,22.21
2019-05-09T04:44:41.274Z,22.27
2019-05-09T04:45:41.954Z,22.24
2019-05-09T04:46:41.247Z,22.25
2019-05-09T04:47:43.445Z,22.24
2019-05-09T04:48:41.247Z,22.20
2019-05-09T04:49:45.110Z,22.28
2019-05-09T04:50:41.205Z,22.22
2019-05-09T04:51:41.190Z,22.27
2019-05-09T04:52:41.220Z,22.33
2019-05-09T04:53:41.173Z,22.18
2019-05-09T04:54:41.163Z,22.18
2019-05-09T04:55:41.149Z,22.18
2019-05-09T04:56:41.137Z,22.33
2019-05-09T04:57:52.289Z,22.17
2019-05-09T04:58:41.118Z,22.36
2019-05-09T04:59:41.139Z,22.30
2019-05-09T05:00:41.098Z,22.22
2019-05-09T05:01:41.079Z,22.22
2019-05-09T05:02:41.078Z,22.18
2019-05-09T05:03:41.059Z,22.17
2019-05-09T05:04:41.048Z,22.21
2019-05-09T05:05:41.078Z,22.33
2019-05-09T05:06:41.027Z,22.18
2019-05-09T05:07:41.014Z,22.24
2019-05-09T05:08:41.000Z,22.28
2019-05-09T05:09:40.992Z,22.30
2019-05-09T05:10:40.979Z,22.30
2019-05-09T05:11:40.985Z,22.21
2019-05-09T05:12:40.957Z,22.28
2019-05-09T05:13:40.961Z,22.33
2019-05-09T05:14:40.933Z,22.39
2019-05-09T05:15:40.924Z,22.36
2019-05-09T05:16:40.964Z,22.35
2019-05-09T05:17:40.904Z,22.36
2019-05-09T05:18:40.890Z,22.39
2019-05-09T05:19:40.877Z,22.36
2019-05-09T05:20:40.865Z,22.40
2019-05-09T05:21:40.856Z,22.47
2019-05-09T05:22:40.892Z,22.40
2019-05-09T05:23:40.838Z,22.55
2019-05-09T05:24:40.828Z,22.45
2019-05-09T05:25:40.818Z,22.39
2019-05-09T05:26:40.806Z,22.46
2019-05-09T05:27:40.793Z,22.51
2019-05-09T05:28:50.858Z,22.43
2019-05-09T05:29:40.768Z,22.45
2019-05-09T05:30:40.761Z,22.51
2019-05-09T05:31:40.747Z,22.42
2019-05-09T05:32:40.740Z,22.42
2019-05-09T05:33:40.725Z,22.51
2019-05-09T05:34:40.730Z,22.51
2019-05-09T05:35:40.711Z,22.49
2019-05-09T05:36:40.696Z,22.47
2019-05-09T05:37:40.683Z,22.57
2019-05-09T05:38:40.676Z,22.57
2019-05-09T05:39:40.680Z,22.46
2019-05-09T05:40:45.389Z,22.51
2019-05-09T05:41:41.639Z,22.49
2019-05-09T05:42:40.632Z,22.55
2019-05-09T05:43:44.604Z,22.60
2019-05-09T05:44:40.608Z,22.58
2019-05-09T05:45:40.635Z,22.61
2019-05-09T05:46:40.586Z,22.57
2019-05-09T05:47:40.601Z,22.61
2019-05-09T05:48:40.562Z,22.62
2019-05-09T05:49:40.559Z,22.61
2019-05-09T05:50:40.540Z,22.61
2019-05-09T05:51:40.572Z,22.67
2019-05-09T05:52:40.519Z,22.67
2019-05-09T05:53:40.506Z,22.72
2019-05-09T05:54:40.498Z,22.64
2019-05-09T05:55:40.482Z,22.73
2019-05-09T05:56:40.566Z,22.68
2019-05-09T05:57:40.497Z,22.68
2019-05-09T05:58:40.460Z,22.72
2019-05-09T05:59:50.831Z,22.72
2019-05-09T06:00:40.431Z,22.68
2019-05-09T06:01:40.420Z,22.73
2019-05-09T06:02:40.411Z,22.79
2019-05-09T06:03:40.404Z,22.72
2019-05-09T06:04:40.390Z,22.72
2019-05-09T06:05:40.374Z,22.68
2019-05-09T06:06:40.363Z,22.70
2019-05-09T06:07:40.387Z,22.72
2019-05-09T06:08:40.341Z,22.72
2019-05-09T06:09:40.330Z,22.72
2019-05-09T06:10:40.316Z,22.72
2019-05-09T06:11:40.315Z,22.75
2019-05-09T06:12:40.296Z,22.73
2019-05-09T06:13:53.311Z,22.73
2019-05-09T06:14:41.270Z,22.68
2019-05-09T06:15:40.270Z,22.75
2019-05-09T06:16:40.257Z,22.73
2019-05-09T06:17:40.244Z,22.70
2019-05-09T06:18:40.227Z,22.79
2019-05-09T06:19:40.243Z,22.76
2019-05-09T06:20:40.210Z,22.77
2019-05-09T06:21:40.199Z,22.68
2019-05-09T06:22:40.187Z,22.76
2019-05-09T06:23:40.176Z,22.82
2019-05-09T06:24:40.195Z,22.80
2019-05-09T06:25:40.153Z,22.85
2019-05-09T06:26:40.143Z,22.83
2019-05-09T06:27:42.273Z,22.88
2019-05-09T06:28:40.127Z,22.85
2019-05-09T06:29:40.113Z,22.85
2019-05-09T06:30:50.407Z,22.85
2019-05-09T06:31:40.101Z,22.88
2019-05-09T06:32:40.092Z,22.85
2019-05-09T06:33:46.048Z,22.95
2019-05-09T06:34:42.171Z,22.86
2019-05-09T06:35:40.045Z,22.86
2019-05-09T06:36:40.026Z,22.88
2019-05-09T06:37:40.030Z,22.97
2019-05-09T06:38:40.010Z,22.90
2019-05-09T06:39:40.011Z,22.88
2019-05-09T06:40:39.990Z,22.90
2019-05-09T06:41:39.977Z,22.90
2019-05-09T06:42:40.032Z,22.83
2019-05-09T06:43:39.950Z,22.86
2019-05-09T06:44:39.946Z,22.86
2019-05-09T06:45:41.687Z,22.88
2019-05-09T06:46:39.924Z,22.90
2019-05-09T06:47:39.908Z,22.85
2019-05-09T06:48:39.914Z,22.88
2019-05-09T06:49:39.884Z,22.85
2019-05-09T06:50:39.874Z,22.86
2019-05-09T06:51:39.868Z,22.85
2019-05-09T06:52:39.853Z,22.88
2019-05-09T06:53:39.847Z,22.83
2019-05-09T06:54:41.806Z,22.91
2019-05-09T06:55:39.819Z,22.88
2019-05-09T06:56:39.807Z,22.88
2019-05-09T06:57:42.819Z,22.83
2019-05-09T06:58:39.786Z,22.88
2019-05-09T06:59:39.792Z,22.83
2019-05-09T07:00:39.781Z,22.90
2019-05-09T07:01:51.123Z,22.88
2019-05-09T07:02:39.741Z,22.83
2019-05-09T07:03:39.733Z,22.83
2019-05-09T07:04:39.719Z,22.83
2019-05-09T07:05:39.712Z,22.90
2019-05-09T07:06:39.708Z,22.83
2019-05-09T07:07:39.687Z,22.83
2019-05-09T07:08:39.726Z,22.80
2019-05-09T07:09:39.661Z,22.85
2019-05-09T07:10:39.654Z,22.83
2019-05-09T07:11:39.641Z,22.86
2019-05-09T07:12:39.630Z,22.86
2019-05-09T07:13:39.620Z,22.85
2019-05-09T07:14:41.874Z,22.83
2019-05-09T07:15:39.594Z,22.83
2019-05-09T07:16:39.629Z,22.85
2019-05-09T07:17:39.572Z,22.83
2019-05-09T07:18:39.563Z,22.79
2019-05-09T07:19:43.468Z,22.85
2019-05-09T07:20:39.541Z,22.86
2019-05-09T07:21:39.536Z,22.90
2019-05-09T07:22:39.623Z,22.83
2019-05-09T07:23:39.507Z,22.86
2019-05-09T07:24:39.497Z,22.86
2019-05-09T07:25:40.437Z,22.83
2019-05-09T07:26:39.472Z,22.83
2019-05-09T07:27:39.464Z,22.85
2019-05-09T07:28:39.463Z,22.86
2019-05-09T07:29:39.443Z,22.85
2019-05-09T07:30:39.429Z,22.88
2019-05-09T07:31:39.419Z,22.86
2019-05-09T07:32:50.127Z,22.88
2019-05-09T07:33:39.421Z,22.88
2019-05-09T07:34:39.389Z,22.85
2019-05-09T07:35:39.379Z,22.82
2019-05-09T07:36:39.367Z,22.88
2019-05-09T07:37:39.357Z,22.90
2019-05-09T07:38:39.345Z,22.86
2019-05-09T07:39:39.372Z,22.85
2019-05-09T07:40:39.326Z,22.70
2019-05-09T07:41:39.313Z,22.82
2019-05-09T07:42:39.302Z,22.86
2019-05-09T07:43:39.308Z,22.80
2019-05-09T07:44:48.801Z,22.83
2019-05-09T07:45:40.281Z,22.83
2019-05-09T07:46:39.250Z,22.85
2019-05-09T07:47:39.245Z,22.76
2019-05-09T07:48:39.234Z,22.80
2019-05-09T07:49:39.248Z,22.79
2019-05-09T07:50:39.213Z,22.88
2019-05-09T07:51:39.204Z,22.85
2019-05-09T07:52:39.189Z,22.82
2019-05-09T07:53:39.180Z,22.82
2019-05-09T07:54:39.176Z,22.83
2019-05-09T07:55:39.158Z,22.83
2019-05-09T07:56:39.146Z,22.73
2019-05-09T07:57:47.009Z,22.86
2019-05-09T07:58:40.116Z,22.80
2019-05-09T07:59:39.117Z,22.83
2019-05-09T08:00:39.100Z,22.82
2019-05-09T08:01:39.083Z,22.83
2019-05-09T08:02:39.084Z,22.85
2019-05-09T08:03:49.247Z,22.86
2019-05-09T08:04:39.049Z,22.85
2019-05-09T08:05:39.042Z,22.83
2019-05-09T08:06:39.033Z,22.86
2019-05-09T08:07:39.027Z,22.88
2019-05-09T08:08:39.039Z,22.88
2019-05-09T08:09:39.001Z,22.91
2019-05-09T08:10:38.981Z,22.85
2019-05-09T08:11:38.978Z,22.85
2019-05-09T08:12:39.113Z,22.90
2019-05-09T08:13:39.623Z,22.80
2019-05-09T08:14:38.987Z,22.86
2019-05-09T08:15:38.928Z,22.85
2019-05-09T08:16:38.915Z,22.90
2019-05-09T08:17:38.911Z,22.83
2019-05-09T08:18:38.892Z,22.85
2019-05-09T08:19:38.887Z,22.88
2019-05-09T08:20:40.711Z,22.92
2019-05-09T08:21:38.863Z,22.86
2019-05-09T08:22:41.100Z,22.86
2019-05-09T08:23:38.853Z,22.86
2019-05-09T08:24:38.829Z,22.91
2019-05-09T08:25:38.813Z,23.00
2019-05-09T08:26:39.644Z,22.97
2019-05-09T08:27:38.801Z,22.92
2019-05-09T08:28:39.259Z,22.90
2019-05-09T08:29:38.926Z,22.98
2019-05-09T08:30:40.415Z,22.98
2019-05-09T08:31:40.434Z,22.98
2019-05-09T08:32:38.771Z,22.94
2019-05-09T08:33:38.732Z,22.92
2019-05-09T08:34:50.736Z,22.95
2019-05-09T08:35:38.711Z,22.97
2019-05-09T08:36:38.703Z,22.92
2019-05-09T08:37:39.162Z,22.94
2019-05-09T08:38:39.282Z,22.90
2019-05-09T08:39:38.663Z,22.97
2019-05-09T08:40:38.723Z,22.95
2019-05-09T08:41:38.743Z,22.95
2019-05-09T08:42:38.632Z,22.92
2019-05-09T08:43:38.665Z,22.95
2019-05-09T08:44:41.960Z,22.98
2019-05-09T08:45:38.615Z,22.94
2019-05-09T08:46:38.583Z,22.91
2019-05-09T08:47:38.600Z,22.95
2019-05-09T08:48:38.571Z,22.94
2019-05-09T08:49:38.562Z,22.94
2019-05-09T08:50:39.136Z,22.97
2019-05-09T08:51:52.061Z,22.91
2019-05-09T08:52:39.525Z,22.95
2019-05-09T08:53:38.508Z,22.86
2019-05-09T08:54:38.587Z,22.94
2019-05-09T08:55:38.609Z,22.97
2019-05-09T08:56:38.819Z,22.97
2019-05-09T08:57:38.473Z,23.05
2019-05-09T08:58:38.459Z,23.01
2019-05-09T08:59:38.538Z,23.04
2019-05-09T09:00:39.178Z,23.09
2019-05-09T09:02:05.167Z,23.07
2019-05-09T09:02:39.412Z,23.02
2019-05-09T09:03:38.400Z,23.05
2019-05-09T09:04:38.631Z,23.05
2019-05-09T09:05:49.158Z,23.09
2019-05-09T09:06:39.109Z,23.09
2019-05-09T09:07:38.363Z,23.09
2019-05-09T09:08:38.347Z,23.10
2019-05-09T09:09:38.338Z,23.05
2019-05-09T09:10:38.727Z,23.10
2019-05-09T09:11:38.669Z,23.15
2019-05-09T09:12:38.642Z,23.05
2019-05-09T09:13:38.295Z,23.17
2019-05-09T09:14:39.617Z,23.17
2019-05-09T09:16:02.297Z,23.12
2019-05-09T09:16:41.873Z,23.16
2019-05-09T09:17:38.627Z,23.16
2019-05-09T09:18:38.881Z,23.19
2019-05-09T09:19:38.739Z,23.20
2019-05-09T09:20:38.358Z,23.16
2019-05-09T09:21:38.914Z,23.16
2019-05-09T09:22:38.198Z,23.12
2019-05-09T09:23:43.914Z,23.07
2019-05-09T09:24:39.166Z,23.10
2019-05-09T09:25:39.046Z,23.13
2019-05-09T09:26:38.320Z,23.17
2019-05-09T09:27:38.236Z,23.17
2019-05-09T09:28:38.186Z,23.22
2019-05-09T09:29:38.312Z,23.25
2019-05-09T09:30:38.938Z,23.20
2019-05-09T09:31:38.093Z,23.22
2019-05-09T09:32:38.877Z,23.25
2019-05-09T09:33:38.105Z,23.25
2019-05-09T09:34:38.235Z,23.23
2019-05-09T09:35:38.462Z,23.20
2019-05-09T09:36:50.107Z,23.19
2019-05-09T09:37:48.474Z,23.25
2019-05-09T09:38:39.023Z,23.27
2019-05-09T09:39:44.318Z,23.16
2019-05-09T09:40:39.003Z,23.19
2019-05-09T09:41:38.762Z,23.22
2019-05-09T09:42:39.697Z,23.20
2019-05-09T09:43:38.459Z,23.16
2019-05-09T09:44:39.241Z,23.23
2019-05-09T09:45:38.145Z,23.20
2019-05-09T09:46:37.928Z,23.25
2019-05-09T09:47:39.923Z,23.23
2019-05-09T09:48:38.931Z,23.20
2019-05-09T09:49:38.547Z,23.20
2019-05-09T09:50:38.458Z,23.20
2019-05-09T09:51:38.355Z,23.19
2019-05-09T09:52:38.538Z,23.22
2019-05-09T09:53:38.616Z,23.25
2019-05-09T09:54:38.666Z,23.25
2019-05-09T09:55:38.499Z,23.23
2019-05-09T09:56:38.606Z,23.28
2019-05-09T09:57:37.909Z,23.23
2019-05-09T09:58:38.021Z,23.28
2019-05-09T09:59:40.833Z,23.28
2019-05-09T10:00:38.212Z,23.27
2019-05-09T10:01:38.539Z,23.31
2019-05-09T10:02:37.937Z,23.33
2019-05-09T10:03:37.731Z,23.32
2019-05-09T10:04:37.723Z,23.33
2019-05-09T10:05:38.154Z,23.35
2019-05-09T10:06:38.822Z,23.33
2019-05-09T10:07:49.207Z,23.33
2019-05-09T10:08:39.598Z,23.38
2019-05-09T10:09:37.667Z,23.36
2019-05-09T10:10:37.656Z,23.36
2019-05-09T10:11:37.643Z,23.38
2019-05-09T10:12:43.568Z,23.38
2019-05-09T10:13:38.626Z,23.33
2019-05-09T10:14:37.613Z,23.47
2019-05-09T10:15:38.426Z,23.39
2019-05-09T10:16:39.035Z,23.46
2019-05-09T10:17:38.662Z,23.40
2019-05-09T10:18:38.228Z,23.46
2019-05-09T10:19:38.361Z,23.43
2019-05-09T10:20:38.530Z,23.46
2019-05-09T10:21:38.229Z,23.48
2019-05-09T10:22:44.579Z,23.46
2019-05-09T10:23:38.505Z,23.47
2019-05-09T10:24:37.501Z,23.43
2019-05-09T10:25:38.259Z,23.46
2019-05-09T10:26:39.007Z,23.42
2019-05-09T10:27:38.749Z,23.42
2019-05-09T10:28:38.080Z,23.48
2019-05-09T10:29:38.746Z,23.51
2019-05-09T10:30:38.300Z,23.42
2019-05-09T10:31:39.158Z,23.42
2019-05-09T10:32:38.391Z,23.42
2019-05-09T10:33:37.654Z,23.43
2019-05-09T10:34:37.892Z,23.39
2019-05-09T10:35:39.261Z,23.40
2019-05-09T10:36:38.512Z,23.48
2019-05-09T10:37:39.245Z,23.51
2019-05-09T10:38:48.018Z,23.51
2019-05-09T10:39:38.085Z,23.47
2019-05-09T10:40:39.780Z,23.46
2019-05-09T10:41:37.682Z,23.48
2019-05-09T10:42:38.038Z,23.46
2019-05-09T10:43:39.041Z,23.47
2019-05-09T10:44:37.523Z,23.47
2019-05-09T10:45:40.860Z,23.51
2019-05-09T10:46:52.125Z,23.47
2019-05-09T10:47:38.241Z,23.51
2019-05-09T10:48:38.615Z,23.48
2019-05-09T10:49:37.924Z,23.47
2019-05-09T10:50:44.685Z,23.47
2019-05-09T10:51:38.203Z,23.48
2019-05-09T10:52:37.193Z,23.51
2019-05-09T10:53:37.181Z,23.50
2019-05-09T10:54:37.167Z,23.53
2019-05-09T10:55:38.501Z,23.55
2019-05-09T10:56:38.423Z,23.53
2019-05-09T10:57:41.736Z,23.54
2019-05-09T10:58:38.118Z,23.53
2019-05-09T10:59:37.697Z,23.55
2019-05-09T11:00:39.215Z,23.58
2019-05-09T11:01:38.198Z,23.60
2019-05-09T11:02:37.079Z,23.57
2019-05-09T11:03:37.675Z,23.57
2019-05-09T11:04:38.767Z,23.54
2019-05-09T11:05:37.049Z,23.61
2019-05-09T11:06:38.188Z,23.53
2019-05-09T11:07:38.125Z,23.51
2019-05-09T11:08:38.108Z,23.58
2019-05-09T11:09:48.035Z,23.60
2019-05-09T11:10:39.590Z,23.54
2019-05-09T11:11:37.096Z,23.55
2019-05-09T11:12:36.965Z,23.68
2019-05-09T11:13:38.983Z,23.58
2019-05-09T11:14:37.730Z,23.54
2019-05-09T11:15:37.557Z,23.54
2019-05-09T11:16:45.488Z,23.55
2019-05-09T11:17:38.995Z,23.55
2019-05-09T11:18:36.902Z,23.55
2019-05-09T11:19:36.923Z,23.61
2019-05-09T11:20:36.874Z,23.69
2019-05-09T11:21:39.129Z,23.65
2019-05-09T11:22:38.627Z,23.65
2019-05-09T11:23:39.164Z,23.65
2019-05-09T11:24:43.040Z,23.55
2019-05-09T11:25:38.157Z,23.63
2019-05-09T11:26:39.554Z,23.55
2019-05-09T11:27:38.889Z,23.66
2019-05-09T11:28:36.788Z,23.68
2019-05-09T11:29:38.852Z,23.70
2019-05-09T11:30:38.644Z,23.72
2019-05-09T11:31:38.479Z,23.69
2019-05-09T11:32:38.579Z,23.70
2019-05-09T11:33:38.568Z,23.72
2019-05-09T11:34:37.548Z,23.68
2019-05-09T11:35:37.992Z,23.70
2019-05-09T11:36:37.885Z,23.69
2019-05-09T11:37:38.371Z,23.70
2019-05-09T11:38:43.130Z,23.72
2019-05-09T11:39:42.004Z,23.68
2019-05-09T11:40:48.310Z,23.65
2019-05-09T11:41:38.391Z,23.61
2019-05-09T11:42:38.145Z,23.75
2019-05-09T11:43:38.929Z,23.68
2019-05-09T11:44:38.494Z,23.68
2019-05-09T11:45:38.734Z,23.68
2019-05-09T11:46:38.205Z,23.69
2019-05-09T11:47:45.504Z,23.66
2019-05-09T11:48:38.239Z,23.76
2019-05-09T11:49:38.905Z,23.73
2019-05-09T11:50:38.673Z,23.60
2019-05-09T11:51:36.565Z,23.63
2019-05-09T11:52:38.317Z,23.69
2019-05-09T11:53:36.514Z,23.79
2019-05-09T11:54:38.711Z,23.61
2019-05-09T11:55:42.640Z,23.70
2019-05-09T11:56:38.458Z,23.66
2019-05-09T11:57:38.477Z,23.60
2019-05-09T11:58:37.965Z,23.66
2019-05-09T11:59:37.981Z,23.58
2019-05-09T12:00:38.159Z,23.72
2019-05-09T12:01:39.432Z,23.75
2019-05-09T12:02:38.578Z,23.66
2019-05-09T12:03:38.715Z,23.76
2019-05-09T12:04:37.991Z,23.70
2019-05-09T12:05:37.928Z,23.72
2019-05-09T12:06:38.303Z,23.68
2019-05-09T12:07:37.941Z,23.73
2019-05-09T12:08:38.579Z,23.80
2019-05-09T12:09:38.544Z,23.75
2019-05-09T12:10:38.225Z,23.73
2019-05-09T12:11:48.505Z,23.76
2019-05-09T12:12:38.821Z,23.72
2019-05-09T12:13:37.987Z,23.75
2019-05-09T12:14:38.201Z,23.66
2019-05-09T12:15:38.800Z,23.79
2019-05-09T12:16:38.100Z,23.79
2019-05-09T12:17:50.924Z,23.78
2019-05-09T12:18:37.877Z,23.76
2019-05-09T12:19:38.060Z,23.72
2019-05-09T12:20:37.527Z,23.79
2019-05-09T12:21:44.797Z,23.79
2019-05-09T12:22:37.180Z,23.80
2019-05-09T12:23:37.805Z,23.75
2019-05-09T12:24:38.468Z,23.79
2019-05-09T12:25:38.453Z,23.75
2019-05-09T12:26:38.809Z,23.76
2019-05-09T12:27:36.127Z,23.72
2019-05-09T12:28:38.650Z,23.72
2019-05-09T12:29:38.533Z,23.73
2019-05-09T12:30:37.991Z,23.75
2019-05-09T12:31:38.409Z,23.72
2019-05-09T12:32:38.330Z,23.73
2019-05-09T12:33:36.060Z,23.78
2019-05-09T12:34:36.050Z,23.79
2019-05-09T12:35:38.537Z,23.78
2019-05-09T12:36:39.506Z,23.80
2019-05-09T12:37:37.825Z,23.73
2019-05-09T12:38:38.803Z,23.80
2019-05-09T12:39:37.832Z,23.78
2019-05-09T12:40:38.691Z,23.79
2019-05-09T12:41:38.474Z,23.75
2019-05-09T12:42:49.613Z,23.78
2019-05-09T12:43:38.205Z,23.80
2019-05-09T12:44:35.942Z,23.76
2019-05-09T12:45:38.282Z,23.75
2019-05-09T12:46:39.107Z,23.75
2019-05-09T12:47:39.381Z,23.78
2019-05-09T12:48:35.894Z,23.75
2019-05-09T12:49:38.485Z,23.73
2019-05-09T12:50:35.867Z,23.76
2019-05-09T12:51:37.650Z,23.72
2019-05-09T12:52:35.890Z,23.78